Latest Weather Observations for Hobart

IDT60801

Issued at 2:31 pm EST Tuesday 3 May 2016 (issued every 30 minutes, with the page automatically refreshed every 10 minutes)

About weather observations | Map of weather stations | Latest weather observations for TAS | Other Formats
Station Details ID: 094029 Name: HOBART (ELLERSLIE ROAD) Lat: -42.89 Lon: 147.33 Height: 50.5 m
Data from the previous 72 hours. | See also: Recent months at Hobart
Date/Time
EST
Temp
°C
App
Temp
°C
Dew
Point
Rel
Hum
%
Delta-T
°C
Wind Press
QNH
hPa
Press
MSL
hPa
Rain
since 9 am
mm
Dir
 
Spd
km/h
Gust
km/h
Spd
kts
Gust
kts
03/02:30pm 12.4 8.7 7.8 73 2.3 NW 17 26 9 14 987.6 987.7 2.0
03/02:00pm 12.8 9.5 6.4 65 3.1 NW 13 19 7 10 987.7 987.8 2.0
03/01:30pm 12.0 8.3 6.4 68 2.7 W 15 20 8 11 987.4 987.5 2.0
03/01:00pm 13.2 9.5 6.4 63 3.3 N 15 24 8 13 986.8 986.9 2.0
03/12:30pm 12.0 8.2 7.5 74 2.2 N 17 24 9 13 987.8 987.9 2.0
03/12:00pm 11.5 8.4 8.9 84 1.3 N 15 22 8 12 989.3 989.4 1.8
03/11:30am 11.2 10.6 9.0 86 1.1 WNW 2 9 1 5 989.1 989.2 1.8
03/11:00am 10.9 8.9 8.7 86 1.1 NW 9 13 5 7 988.7 988.8 1.2
03/10:30am 11.3 8.3 7.9 79 1.7 NNW 13 17 7 9 988.5 988.6 0.6
03/10:00am 12.4 8.4 6.6 68 2.8 NNW 17 24 9 13 988.1 988.2 0.0
03/09:30am 12.8 7.8 6.4 65 3.1 NNW 22 35 12 19 988.0 988.1 0.0
03/09:00am 13.2 10.9 8.9 75 2.2 N 11 15 6 8 988.4 988.5 6.0
03/08:30am 13.0 9.7 9.5 79 1.8 WNW 17 33 9 18 988.7 988.8 6.0
03/08:00am 13.9 8.9 8.2 68 2.9 NW 24 33 13 18 988.1 988.2 6.0
03/07:30am 13.6 8.8 8.9 73 2.4 NW 24 41 13 22 987.8 987.9 5.8
03/07:05am 13.7 8.2 9.0 73 2.4 NW 28 50 15 27 987.4 987.5 5.6
03/07:00am 13.6 9.3 9.3 75 2.2 NW 22 35 12 19 987.4 987.5 5.6
03/06:30am 13.4 9.7 10.2 81 1.7 NW 20 32 11 17 987.2 987.3 5.4
03/06:00am 13.4 10.3 11.7 89 0.9 NNW 19 26 10 14 987.3 987.4 4.4
03/05:30am 13.4 11.9 11.9 91 0.8 W 11 15 6 8 987.9 988.0 3.2
03/05:00am 13.8 13.0 11.6 86 1.2 NNE 7 13 4 7 986.8 986.9 2.0
03/04:30am 14.0 12.3 11.2 83 1.5 NNW 11 17 6 9 987.5 987.6 1.8
03/04:00am 14.8 10.9 10.7 76 2.2 NW 22 35 12 19 988.1 988.2 1.4
03/03:45am 15.8 10.4 9.5 66 3.3 NW 28 52 15 28 987.8 987.9 0.8
03/03:30am 15.9 11.2 9.4 65 3.4 NW 24 39 13 21 987.7 987.8 0.4
03/03:00am 16.2 11.0 8.7 61 3.9 NNW 26 43 14 23 987.6 987.7 0.2
03/02:30am 17.4 11.0 6.9 50 5.2 NNW 30 57 16 31 987.6 987.7 0.2
03/02:02am 17.7 10.5 6.0 46 5.7 NNW 33 52 18 28 987.9 988.0 0.2
03/02:00am 17.7 10.1 6.0 46 5.8 NW 35 52 19 28 987.8 987.9 0.2
03/01:30am 17.6 8.4 5.6 45 5.8 NNW 43 74 23 40 987.8 987.9 0.2
03/01:00am 17.5 9.0 5.2 44 6.0 NNW 39 69 21 37 987.9 988.0 0.2
03/12:30am 17.7 7.8 4.9 42 6.1 NNW 46 76 25 41 988.2 988.3 0.2
03/12:00am 17.3 6.7 5.2 45 5.9 NNW 50 80 27 43 988.7 988.8 0.2
 
Date/Time
EST
Temp
°C
App
Temp
°C
Dew
Point
Rel
Hum
%
Delta-T
°C
Wind Press
QNH
hPa
Press
MSL
hPa
Rain
since 9 am
mm
Dir
 
Spd
km/h
Gust
km/h
Spd
kts
Gust
kts
02/11:34pm 17.0 7.7 5.0 45 5.7 NNW 43 65 23 35 988.8 988.9 0.2
02/11:30pm 16.8 7.4 5.3 46 5.5 NNW 44 59 24 32 988.8 988.9 0.2
02/11:00pm 16.9 7.3 4.6 44 5.9 NNW 44 67 24 36 989.5 989.6 0.2
02/10:30pm 16.7 6.7 4.3 43 5.8 NNW 46 74 25 40 989.8 989.9 0.2
02/10:00pm 16.1 7.1 4.8 47 5.4 NNW 41 63 22 34 989.8 989.9 0.2
02/09:30pm 16.2 6.3 4.7 46 5.4 NNW 46 70 25 38 990.4 990.4 0.2
02/09:00pm 16.1 8.0 5.1 48 5.3 NNW 37 57 20 31 991.2 991.2 0.2
02/08:30pm 16.2 7.6 4.9 47 5.4 NNW 39 59 21 32 991.8 991.8 0.2
02/08:00pm 16.4 9.2 5.0 47 5.5 NNW 32 61 17 33 993.0 993.0 0.2
02/07:32pm 16.5 8.7 4.8 46 5.6 NNW 35 83 19 45 993.5 993.5 0.2
02/07:30pm 16.2 9.5 5.5 49 5.1 NNW 30 52 16 28 993.6 993.6 0.2
02/07:00pm 16.0 8.7 5.5 49 5.1 NNW 33 56 18 30 993.8 993.8 0.2
02/06:36pm 16.1 9.7 5.3 48 5.2 N 28 50 15 27 993.9 993.9 0.2
02/06:30pm 16.1 10.1 5.3 48 5.2 N 26 43 14 23 994.1 994.1 0.2
02/06:05pm 16.2 9.5 5.5 49 5.1 N 30 52 16 28 994.3 994.3 0.2
02/06:00pm 16.2 9.8 5.2 48 5.3 N 28 44 15 24 994.3 994.3 0.2
02/05:34pm 16.5 10.0 4.8 46 5.6 N 28 52 15 28 994.6 994.6 0.2
02/05:30pm 16.4 10.4 5.2 47 5.4 NNW 26 43 14 23 994.8 994.8 0.2
02/05:00pm 16.6 9.7 4.7 45 5.7 N 30 54 16 29 994.9 994.9 0.2
02/04:30pm 16.7 9.8 4.5 44 5.8 N 30 50 16 27 995.6 995.6 0.2
02/04:14pm 16.8 9.2 4.1 43 6.0 NNW 33 54 18 29 995.8 995.8 0.2
02/04:00pm 17.2 8.8 3.6 40 6.4 NNW 37 52 20 28 995.9 995.9 0.2
02/03:30pm 17.3 9.6 3.4 39 6.4 NNW 33 52 18 28 996.4 996.4 0.2
02/03:04pm 17.3 9.8 3.4 39 6.4 NNW 32 56 17 30 996.6 996.6 0.2
02/03:00pm 17.3 9.8 3.4 39 6.5 NNW 32 44 17 24 996.7 996.7 0.2
02/02:30pm 17.6 9.4 2.7 37 6.8 NNW 35 61 19 33 997.3 997.3 0.2
02/02:00pm 17.3 8.4 3.1 38 6.6 NNW 39 61 21 33 997.3 997.3 0.2
02/01:32pm 17.2 8.3 2.9 38 6.6 NNW 39 57 21 31 998.0 998.0 0.2
02/01:30pm 17.1 7.7 2.5 37 6.6 NNW 41 57 22 31 998.0 998.0 0.2
02/01:00pm 17.2 9.0 2.9 38 6.6 NW 35 59 19 32 998.5 998.5 0.2
02/12:30pm 16.1 8.8 2.7 40 6.1 NW 30 57 16 31 999.1 999.1 0.0
02/12:05pm 15.6 8.9 3.5 44 5.5 NNW 28 46 15 25 999.6 999.6 0.0
02/12:00pm 15.6 10.1 3.8 45 5.5 NNW 22 39 12 21 999.8 999.8 0.0
02/11:30am 15.1 6.6 3.3 45 5.4 NW 37 56 20 30 1000.3 1000.3 0.0
02/11:09am 14.6 7.9 3.7 48 5.0 NW 28 46 15 25 1000.6 1000.6 0.0
02/11:00am 14.6 8.7 4.0 49 4.9 NNW 24 35 13 19 1000.6 1000.6 0.0
02/10:30am 14.7 10.1 3.9 48 5.0 NNW 17 26 9 14 1001.1 1001.1 0.0
02/10:00am 13.7 9.6 4.4 53 4.3 NNW 15 22 8 12 1001.8 1001.8 0.0
02/09:30am 12.7 8.6 4.2 56 3.9 N 15 22 8 12 1002.0 1002.0 0.0
02/09:00am 11.7 7.0 3.4 56 3.7 N 17 26 9 14 1002.4 1002.5 5.6
02/08:30am 11.1 7.7 4.2 62 3.1 NNE 11 17 6 9 1002.6 1002.7 5.6
02/08:00am 10.8 6.7 4.1 63 3.0 N 15 24 8 13 1002.6 1002.7 5.6
02/07:30am 10.3 6.1 4.0 65 2.8 N 15 24 8 13 1002.5 1002.6 5.6
02/07:00am 10.3 5.3 3.8 64 2.9 N 19 26 10 14 1002.6 1002.7 5.6
02/06:30am 10.3 5.3 3.5 62 3.0 N 19 28 10 15 1002.4 1002.5 5.6
02/06:00am 10.2 5.6 3.6 63 2.9 N 17 26 9 14 1002.5 1002.6 5.6
02/05:30am 10.3 4.3 3.5 62 3.0 N 24 33 13 18 1002.6 1002.7 5.6
02/05:00am 10.5 4.3 2.4 57 3.5 NNW 24 39 13 21 1002.1 1002.2 5.6
02/04:30am 10.3 5.0 3.0 60 3.2 N 20 33 11 18 1002.2 1002.3 5.6
02/04:07am 10.9 3.8 1.4 52 4.0 NNW 28 48 15 26 1002.0 1002.0 5.6
02/04:00am 10.5 4.7 2.1 56 3.6 NNW 22 43 12 23 1002.0 1002.0 5.6
02/03:30am 10.6 4.0 1.9 55 3.7 NNW 26 39 14 21 1002.0 1002.0 5.6
02/03:00am 10.3 4.8 2.1 57 3.5 N 20 32 11 17 1001.7 1001.7 5.6
02/02:46am 10.3 4.0 1.5 54 3.7 NNW 24 46 13 25 1001.8 1001.8 5.6
02/02:30am 10.2 3.9 1.4 54 3.7 N 24 35 13 19 1001.5 1001.5 5.6
02/02:00am 10.0 4.7 1.7 56 3.5 NNW 19 26 10 14 1001.7 1001.7 5.6
02/01:30am 9.8 4.0 2.3 59 3.2 NNW 22 32 12 17 1001.6 1001.6 5.6
02/01:00am 10.0 4.5 2.0 57 3.4 NNW 20 35 11 19 1001.6 1001.6 5.6
02/12:30am 9.7 4.5 3.3 64 2.8 NNW 20 32 11 17 1001.3 1001.3 5.6
02/12:00am 9.5 3.3 4.1 69 2.4 NNW 26 35 14 19 1001.1 1001.1 5.6
 
Date/Time
EST
Temp
°C
App
Temp
°C
Dew
Point
Rel
Hum
%
Delta-T
°C
Wind Press
QNH
hPa
Press
MSL
hPa
Rain
since 9 am
mm
Dir
 
Spd
km/h
Gust
km/h
Spd
kts
Gust
kts
01/11:35pm 10.7 1.5 1.5 53 3.9 WNW 39 74 21 40 1000.6 1000.6 5.6
01/11:30pm 11.0 3.0 0.7 49 4.3 NW 32 74 17 40 1000.4 1000.4 5.6
01/11:29pm 11.0 3.8 0.7 49 4.3 NW 28 74 15 40 1000.4 1000.4 5.6
01/11:00pm 10.7 5.7 1.5 53 3.9 NNW 17 30 9 16 1000.5 1000.5 5.6
01/10:37pm 11.2 3.9 0.3 47 4.5 WNW 28 50 15 27 1000.4 1000.4 5.6
01/10:30pm 11.2 5.1 0.3 47 4.5 WNW 22 46 12 25 1000.3 1000.3 5.6
01/10:07pm 11.4 4.9 0.3 46 4.6 W 24 50 13 27 1000.1 1000.1 5.6
01/10:00pm 11.3 5.7 1.1 49 4.3 WNW 20 39 11 21 999.9 999.9 5.6
01/09:30pm 11.7 3.7 1.4 49 4.4 WNW 33 65 18 35 999.2 999.2 5.6
01/09:11pm 11.9 7.0 1.7 49 4.4 W 17 50 9 27 999.0 999.0 5.6
01/09:00pm 12.0 6.6 1.5 48 4.5 NW 19 43 10 23 998.9 998.9 5.6
01/08:30pm 12.0 5.9 2.7 53 4.1 W 24 48 13 26 998.3 998.3 5.6
01/08:11pm 11.7 5.7 3.1 55 3.8 W 24 50 13 27 997.6 997.6 5.6
01/08:00pm 11.6 4.5 3.6 58 3.6 W 30 59 16 32 997.3 997.3 5.6
01/07:42pm 11.8 5.5 3.6 57 3.6 W 26 52 14 28 996.5 996.5 5.6
01/07:37pm 11.7 4.7 4.2 60 3.4 W 30 67 16 36 996.1 996.1 5.6
01/07:30pm 11.5 3.2 4.2 61 3.3 W 37 67 20 36 996.1 996.1 5.6
01/07:00pm 11.4 4.1 5.4 66 2.8 WSW 33 70 18 38 994.4 994.4 5.6
01/06:30pm 11.5 3.9 6.0 69 2.6 WSW 35 61 19 33 993.3 993.3 5.4
01/06:00pm 11.7 3.3 7.2 74 2.2 WSW 41 83 22 45 992.3 992.3 4.8
01/05:43pm 12.4 4.5 7.8 73 2.3 WSW 39 89 21 48 991.3 991.3 3.6
01/05:38pm 12.4 6.3 8.4 76 2.0 WSW 30 70 16 38 991.1 991.1 3.4
01/05:34pm 12.7 7.0 8.5 75 2.1 WSW 28 46 15 25 990.8 990.8 3.0
01/05:30pm 12.9 7.7 9.0 77 2.0 WSW 26 46 14 25 990.8 990.8 2.8
01/05:00pm 13.6 9.6 9.1 74 2.3 NNW 20 30 11 16 989.2 989.3 1.6
01/04:30pm 14.9 13.3 8.7 66 3.2 N 7 17 4 9 988.2 988.3 1.6
01/04:00pm 15.7 11.8 8.5 62 3.7 WNW 19 28 10 15 987.8 987.9 1.6
01/03:30pm 16.5 11.2 6.7 52 4.8 NW 24 41 13 22 987.3 987.4 1.6
01/03:00pm 17.1 12.7 6.5 49 5.3 NNW 19 30 10 16 987.2 987.3 1.6
01/02:30pm 16.2 13.2 7.8 57 4.2 N 13 19 7 10 987.0 987.1 1.6
01/02:00pm 15.4 13.3 8.2 62 3.7 N 9 19 5 10 987.8 987.9 1.6
01/01:30pm 14.8 11.4 7.6 62 3.6 NNW 15 20 8 11 988.3 988.4 1.6
01/01:00pm 14.6 11.1 7.4 62 3.6 NNW 15 26 8 14 989.1 989.2 1.6
01/12:30pm 14.7 11.4 9.5 71 2.7 N 17 26 9 14 989.4 989.5 1.4
01/12:00pm 14.5 12.5 11.5 82 1.6 NNW 13 20 7 11 991.5 991.5 1.4
01/11:30am 14.2 12.6 11.4 83 1.5 NNW 11 15 6 8 992.1 992.1 1.4
01/11:00am 13.0 11.1 11.7 92 0.7 NNW 13 17 7 9 992.9 992.9 1.4
01/10:30am 12.7 11.6 11.8 94 0.5 NNW 9 17 5 9 993.7 993.7 1.4
01/10:00am 12.6 10.3 11.7 94 0.5 NNW 15 20 8 11 994.6 994.6 1.2
01/09:30am 12.9 10.9 11.6 92 0.7 NNW 13 22 7 12 996.0 996.0 0.6
01/09:00am 12.8 9.5 11.7 93 0.6 N 20 30 11 16 996.6 996.6 6.6
01/08:30am 13.2 10.4 11.3 88 1.0 N 17 24 9 13 997.1 997.1 4.0
01/08:00am 15.2 11.6 9.9 70 2.8 NW 19 41 10 22 997.2 997.2 1.0
01/07:30am 13.8 13.3 12.1 89 0.9 WNW 6 13 3 7 997.1 997.1 0.8
01/07:00am 13.5 11.3 12.2 92 0.7 WSW 15 20 8 11 997.5 997.5 0.8
01/06:30am 13.3 12.0 12.4 94 0.5 SW 11 13 6 7 998.7 998.7 0.8
01/06:00am 13.4 13.7 12.3 93 0.6 NNE 2 9 1 5 999.4 999.4 0.8
01/05:30am 13.7 12.2 12.0 89 0.9 SW 11 15 6 8 1000.4 1000.4 0.8
01/05:00am 14.0 12.6 10.8 81 1.7 WSW 9 11 5 6 1001.2 1001.2 0.0
01/04:30am 13.1 13.3 10.4 84 1.4 CALM 0 0 0 0 1001.1 1001.1 0.0
01/04:00am 13.6 13.4 10.4 81 1.7 WSW 2 9 1 5 1001.3 1001.3 0.0
01/03:30am 13.6 13.0 10.4 81 1.7 SW 4 9 2 5 1001.8 1001.8 0.0
01/03:00am 14.2 12.3 10.4 78 2.0 WNW 11 13 6 7 1002.3 1002.3 0.0
01/02:30am 13.9 12.1 9.6 75 2.2 WNW 9 13 5 7 1002.8 1002.8 0.0
01/02:00am 14.3 12.9 9.5 73 2.5 WSW 7 9 4 5 1003.5 1003.5 0.0
01/01:30am 14.1 12.2 9.2 72 2.5 WNW 9 13 5 7 1004.3 1004.3 0.0
01/01:00am 14.5 11.1 9.0 69 2.8 WSW 17 19 9 10 1004.9 1004.9 0.0
01/12:30am 14.8 11.7 8.9 68 3.0 W 15 17 8 9 1005.3 1005.3 0.0
01/12:00am 14.7 12.9 9.3 70 2.8 SW 9 11 5 6 1005.5 1005.5 0.0
 
Date/Time
EST
Temp
°C
App
Temp
°C
Dew
Point
Rel
Hum
%
Delta-T
°C
Wind Press
QNH
hPa
Press
MSL
hPa
Rain
since 9 am
mm
Dir
 
Spd
km/h
Gust
km/h
Spd
kts
Gust
kts
30/11:30pm 15.3 13.9 9.7 69 2.9 SSW 7 9 4 5 1006.0 1006.0 0.0
30/11:00pm 15.6 15.4 9.0 65 3.4 CALM 0 2 0 1 1006.3 1006.3 0.0
30/10:30pm 15.4 14.0 9.4 67 3.1 N 7 9 4 5 1006.5 1006.5 0.0
30/10:00pm 16.5 15.0 9.2 62 3.8 N 7 15 4 8 1006.8 1006.8 0.0
30/09:30pm 17.2 14.8 8.5 56 4.5 N 11 19 6 10 1007.0 1007.0 0.0
30/09:00pm 17.6 14.1 8.7 56 4.6 NNW 17 26 9 14 1006.8 1006.8 0.0
30/08:30pm 18.3 14.4 8.5 52 5.1 NNW 19 26 10 14 1006.6 1006.6 0.0
30/08:00pm 19.0 14.7 7.9 48 5.7 NNW 20 32 11 17 1006.6 1006.6 0.0
30/07:30pm 19.2 14.9 7.7 47 5.9 NNW 20 28 11 15 1006.9 1006.9 0.0
30/07:00pm 19.3 15.3 8.1 48 5.8 N 19 26 10 14 1006.8 1006.8 0.0
30/06:30pm 19.5 15.8 7.9 47 6.0 N 17 24 9 13 1006.7 1006.7 0.0
30/06:00pm 19.5 16.6 8.1 47 5.9 N 13 19 7 10 1006.7 1006.7 0.0
30/05:30pm 19.3 17.6 8.4 49 5.7 NW 7 17 4 9 1006.6 1006.6 0.0
30/05:00pm 19.8 17.9 9.0 49 5.7 NNW 9 17 5 9 1006.5 1006.5 0.0
30/04:30pm 20.6 17.1 8.7 46 6.3 N 17 26 9 14 1006.6 1006.6 0.0
30/04:00pm 20.9 16.7 8.3 44 6.6 N 20 35 11 19 1006.8 1006.8 0.0
30/03:30pm 21.1 16.6 8.4 44 6.7 NNW 22 39 12 21 1006.9 1006.9 0.0
30/03:00pm 21.2 15.5 8.3 43 6.8 NNW 28 48 15 26 1006.8 1006.8 0.0
30/02:47pm 21.5 15.9 8.7 44 6.8 NNW 28 46 15 25 1006.9 1006.9 0.0

Other Formats:

Comma delimited format used in spreadsheet applications
http://www.bom.gov.au/fwo/IDT60801/IDT60801.94970.axf

JavaScript Object Notation format (JSON) in row-major order
http://www.bom.gov.au/fwo/IDT60801/IDT60801.94970.json